createdAt,value
2022-11-03T00:01:37.927Z,3.92
2022-11-03T00:04:06.832Z,5.97
2022-11-03T00:06:34.493Z,3.55
2022-11-03T00:09:03.667Z,3.13
2022-11-03T00:11:34.280Z,3.67
2022-11-03T00:14:02.243Z,3.15
2022-11-03T00:16:29.472Z,3.00
2022-11-03T00:18:59.535Z,3.85
2022-11-03T00:21:26.592Z,4.22
2022-11-03T00:23:53.709Z,5.38
2022-11-03T00:26:22.877Z,3.60
2022-11-03T00:28:57.994Z,3.15
2022-11-03T00:31:27.924Z,3.40
2022-11-03T00:33:55.615Z,4.43
2022-11-03T00:36:37.068Z,3.15
2022-11-03T00:39:05.642Z,2.60
2022-11-03T00:41:32.695Z,3.88
2022-11-03T00:43:59.857Z,2.92
2022-11-03T00:46:27.590Z,4.28
2022-11-03T00:48:54.628Z,2.72
2022-11-03T00:51:26.996Z,3.58
2022-11-03T00:53:58.767Z,2.72
2022-11-03T00:56:30.553Z,3.75
2022-11-03T00:58:59.668Z,2.92
2022-11-03T01:01:32.601Z,2.90
2022-11-03T01:04:18.484Z,5.10
2022-11-03T01:06:50.255Z,5.57
2022-11-03T01:09:25.948Z,2.47
2022-11-03T01:12:04.713Z,3.53
2022-11-03T01:14:36.503Z,3.50
2022-11-03T01:17:09.571Z,3.00
2022-11-03T01:19:36.782Z,2.38
2022-11-03T01:22:06.506Z,3.25
2022-11-03T01:24:37.243Z,2.47
2022-11-03T01:27:04.340Z,4.45
2022-11-03T01:29:31.286Z,4.10
2022-11-03T01:31:58.544Z,3.75
2022-11-03T01:34:25.601Z,3.42
2022-11-03T01:36:52.532Z,3.30
2022-11-03T01:39:20.176Z,2.42
2022-11-03T01:41:50.068Z,2.35
2022-11-03T01:44:16.864Z,3.20
2022-11-03T01:47:02.393Z,4.82
2022-11-03T01:49:48.928Z,2.15
2022-11-03T01:52:50.856Z,2.75
2022-11-03T01:55:21.938Z,3.03
2022-11-03T01:57:55.760Z,2.28
2022-11-03T02:00:22.966Z,2.67
2022-11-03T02:02:51.579Z,4.25
2022-11-03T02:05:19.711Z,3.45
2022-11-03T02:08:00.941Z,2.97
2022-11-03T02:10:28.137Z,2.95
2022-11-03T02:12:55.317Z,4.63
2022-11-03T02:15:23.569Z,3.00
2022-11-03T02:17:53.479Z,3.03
2022-11-03T02:20:25.248Z,3.13
2022-11-03T02:23:31.014Z,3.28
2022-11-03T02:25:58.710Z,2.40
2022-11-03T02:28:31.792Z,3.65
2022-11-03T02:31:05.851Z,3.30
2022-11-03T02:36:34.560Z,2.75
2022-11-03T02:39:06.957Z,3.15
2022-11-03T02:41:35.783Z,3.60
2022-11-03T02:44:04.570Z,2.92
2022-11-03T02:46:33.917Z,2.45
2022-11-03T02:49:00.928Z,3.38
2022-11-03T02:51:27.969Z,2.83
2022-11-03T02:54:33.170Z,3.38
2022-11-03T02:57:04.691Z,3.78
2022-11-03T02:59:42.719Z,3.05
2022-11-03T03:02:15.881Z,3.95
2022-11-03T03:04:54.228Z,3.88
2022-11-03T03:07:31.595Z,3.65
2022-11-03T03:10:14.669Z,4.85
2022-11-03T03:12:47.764Z,3.10
2022-11-03T03:15:16.299Z,2.43
2022-11-03T03:18:29.467Z,2.95
2022-11-03T03:21:05.366Z,2.45
2022-11-03T03:23:36.185Z,2.90
2022-11-03T03:26:13.666Z,3.47
2022-11-03T03:28:48.202Z,4.20
2022-11-03T03:31:18.908Z,2.30
2022-11-03T03:33:48.833Z,2.28
2022-11-03T03:36:18.356Z,4.18
2022-11-03T03:38:51.254Z,4.00
2022-11-03T03:41:22.366Z,4.82
2022-11-03T03:43:55.998Z,3.20
2022-11-03T03:46:26.527Z,2.85
2022-11-03T03:48:53.496Z,3.38
2022-11-03T03:51:25.486Z,2.20
2022-11-03T03:53:53.324Z,2.70
2022-11-03T03:56:36.822Z,3.03
2022-11-03T03:59:04.052Z,3.50
2022-11-03T04:01:31.018Z,5.05
2022-11-03T04:03:58.065Z,2.30
2022-11-03T04:06:25.048Z,3.40
2022-11-03T04:08:51.943Z,4.28
2022-11-03T04:11:37.571Z,3.63
2022-11-03T04:14:23.043Z,3.33
2022-11-03T04:17:08.339Z,4.88
2022-11-03T04:19:53.711Z,4.03
2022-11-03T04:22:22.000Z,2.63
2022-11-03T04:24:50.814Z,2.97
2022-11-03T04:27:33.944Z,3.67
2022-11-03T04:30:25.057Z,4.20
2022-11-03T04:32:53.750Z,4.93
2022-11-03T04:35:23.987Z,3.63
2022-11-03T04:38:17.197Z,2.80
2022-11-03T04:40:49.114Z,2.78
2022-11-03T04:43:23.731Z,3.80
2022-11-03T04:45:51.021Z,2.40
2022-11-03T04:48:25.490Z,2.80
2022-11-03T04:50:56.483Z,2.47
2022-11-03T04:53:24.563Z,3.60
2022-11-03T04:55:53.419Z,3.55
2022-11-03T04:58:26.982Z,4.07
2022-11-03T05:00:57.106Z,2.95
2022-11-03T05:03:35.059Z,2.78
2022-11-03T05:06:12.603Z,3.13
2022-11-03T05:08:39.763Z,4.30
2022-11-03T05:11:20.512Z,4.50
2022-11-03T05:13:48.586Z,3.67
2022-11-03T05:16:16.992Z,2.63
2022-11-03T05:18:46.778Z,2.53
2022-11-03T05:21:17.446Z,4.25
2022-11-03T05:24:01.513Z,2.38
2022-11-03T05:26:34.559Z,3.50
2022-11-03T05:29:10.688Z,2.45
2022-11-03T05:31:40.285Z,3.72
2022-11-03T05:34:21.848Z,4.25
2022-11-03T05:36:48.758Z,4.28
2022-11-03T05:39:37.293Z,3.95
2022-11-03T05:42:19.918Z,2.90
2022-11-03T05:44:46.818Z,1.83
2022-11-03T05:47:26.709Z,3.30
2022-11-03T05:50:01.796Z,3.45
2022-11-03T05:52:29.220Z,3.80
2022-11-03T05:54:58.911Z,2.38
2022-11-03T05:57:28.626Z,2.85
2022-11-03T05:59:56.258Z,3.70
2022-11-03T06:02:41.638Z,2.33
2022-11-03T06:05:34.877Z,5.00
2022-11-03T06:08:06.553Z,3.17
2022-11-03T06:10:42.024Z,3.63
2022-11-03T06:13:16.884Z,2.88
2022-11-03T06:15:46.951Z,2.90
2022-11-03T06:18:19.837Z,3.35
2022-11-03T06:20:52.233Z,2.55
2022-11-03T06:23:20.917Z,3.28
2022-11-03T06:25:48.883Z,2.42
2022-11-03T06:28:20.753Z,4.70
2022-11-03T06:30:48.800Z,2.50
2022-11-03T06:33:27.648Z,3.00
2022-11-03T06:36:01.493Z,2.92
2022-11-03T06:38:30.525Z,4.72
2022-11-03T06:40:59.060Z,4.30
2022-11-03T06:43:35.506Z,3.85
2022-11-03T06:46:12.471Z,3.33
2022-11-03T06:48:39.813Z,3.08
2022-11-03T06:51:22.667Z,2.90
2022-11-03T06:53:51.322Z,3.28
2022-11-03T06:56:23.931Z,3.35
2022-11-03T06:58:53.644Z,4.05
2022-11-03T07:01:25.062Z,2.42
2022-11-03T07:03:56.792Z,4.85
2022-11-03T07:06:27.362Z,3.30
2022-11-03T07:09:04.956Z,2.42
2022-11-03T07:11:53.636Z,4.43
2022-11-03T07:14:24.726Z,3.72
2022-11-03T07:17:02.359Z,3.85
2022-11-03T07:19:39.142Z,3.10
2022-11-03T07:22:18.645Z,3.58
2022-11-03T07:24:47.637Z,3.13
2022-11-03T07:27:14.560Z,3.38
2022-11-03T07:29:42.170Z,2.42
2022-11-03T07:32:17.698Z,3.72
2022-11-03T07:34:45.654Z,4.35
2022-11-03T07:37:21.376Z,4.18
2022-11-03T07:39:50.829Z,3.17
2022-11-03T07:42:23.184Z,4.13
2022-11-03T07:44:52.022Z,3.45
2022-11-03T07:47:27.726Z,2.92
2022-11-03T07:49:55.955Z,3.22
2022-11-03T07:52:25.841Z,3.03
2022-11-03T07:54:56.975Z,3.30
2022-11-03T07:57:30.683Z,3.03
2022-11-03T08:00:08.848Z,3.42
2022-11-03T08:02:37.391Z,5.13
2022-11-03T08:05:04.672Z,3.00
2022-11-03T08:07:31.846Z,4.07
2022-11-03T08:09:58.819Z,2.20
2022-11-03T08:12:25.807Z,3.38
2022-11-03T08:14:54.103Z,3.10
2022-11-03T08:17:20.927Z,2.70
2022-11-03T08:19:48.415Z,2.53
2022-11-03T08:22:15.316Z,3.33
2022-11-03T08:24:42.182Z,4.35
2022-11-03T08:27:09.113Z,2.88
2022-11-03T08:29:36.105Z,3.97
2022-11-03T08:32:02.969Z,2.92
2022-11-03T08:34:29.888Z,2.78
2022-11-03T08:36:56.769Z,4.13
2022-11-03T08:39:23.677Z,3.40
2022-11-03T08:41:50.565Z,3.83
2022-11-03T08:44:17.619Z,3.25
2022-11-03T08:46:44.526Z,4.20
2022-11-03T08:49:11.519Z,2.95
2022-11-03T08:51:43.955Z,3.08
2022-11-03T08:54:11.412Z,3.13
2022-11-03T08:56:38.360Z,3.30
2022-11-03T08:59:05.334Z,3.28
2022-11-03T09:01:32.583Z,3.55
2022-11-03T09:03:59.870Z,3.25
2022-11-03T09:06:26.856Z,7.35
2022-11-03T09:11:40.620Z,4.28
2022-11-03T09:14:07.862Z,3.65
2022-11-03T09:16:35.013Z,3.45
2022-11-03T09:19:01.915Z,2.20
2022-11-03T09:21:28.803Z,3.88
2022-11-03T09:23:55.989Z,4.18
2022-11-03T09:26:22.914Z,4.93
2022-11-03T09:28:49.845Z,2.60
2022-11-03T09:31:17.228Z,3.45
2022-11-03T09:33:44.194Z,3.53
2022-11-03T09:36:11.206Z,3.58
2022-11-03T09:38:38.129Z,3.08
2022-11-03T09:41:13.600Z,3.03
2022-11-03T09:43:53.289Z,3.22
2022-11-03T09:46:20.337Z,4.20
2022-11-03T09:48:47.210Z,3.70
2022-11-03T09:51:19.681Z,2.47
2022-11-03T09:53:50.311Z,2.72
2022-11-03T09:56:21.671Z,2.33
2022-11-03T09:58:53.071Z,2.40
2022-11-03T10:01:21.564Z,2.70
2022-11-03T10:03:48.642Z,2.70
2022-11-03T10:06:17.629Z,5.10
2022-11-03T10:08:47.004Z,3.67
2022-11-03T10:11:15.028Z,3.17
2022-11-03T10:13:45.954Z,4.95
2022-11-03T10:16:17.230Z,4.35
2022-11-03T10:18:44.830Z,3.35
2022-11-03T10:21:17.509Z,2.83
2022-11-03T10:23:44.987Z,4.15
2022-11-03T10:26:18.762Z,3.20
2022-11-03T10:29:09.351Z,2.30
2022-11-03T10:31:38.763Z,2.78
2022-11-03T10:34:23.535Z,2.70
2022-11-03T10:36:51.192Z,4.90
2022-11-03T10:39:30.868Z,3.88
2022-11-03T10:41:59.498Z,3.05
2022-11-03T10:44:28.733Z,3.83
2022-11-03T10:47:03.922Z,3.22
2022-11-03T10:49:33.877Z,3.30
2022-11-03T10:52:26.950Z,2.60
2022-11-03T10:54:57.431Z,3.33
2022-11-03T10:57:25.571Z,2.63
2022-11-03T10:59:54.352Z,3.17
2022-11-03T11:02:25.585Z,3.67
2022-11-03T11:05:03.204Z,4.60
2022-11-03T11:07:39.128Z,3.03
2022-11-03T11:10:12.207Z,2.85
2022-11-03T11:12:39.638Z,3.97
2022-11-03T11:15:36.758Z,2.90
2022-11-03T11:18:03.742Z,2.85
2022-11-03T11:20:41.549Z,2.33
2022-11-03T11:23:27.226Z,2.40
2022-11-03T11:26:09.065Z,3.53
2022-11-03T11:28:37.312Z,1.60
2022-11-03T11:31:22.756Z,2.53
2022-11-03T11:33:50.105Z,2.33
2022-11-03T11:36:23.626Z,2.70
2022-11-03T11:38:55.376Z,1.73
2022-11-03T11:41:42.584Z,2.67
2022-11-03T11:44:43.802Z,3.60
2022-11-03T11:47:27.891Z,2.78
2022-11-03T11:50:06.954Z,3.63
2022-11-03T11:53:01.455Z,2.58
2022-11-03T11:58:12.718Z,2.90
2022-11-03T12:01:00.467Z,2.67
2022-11-03T12:03:47.845Z,1.80
2022-11-03T12:06:15.378Z,2.55
2022-11-03T12:08:43.379Z,2.25
2022-11-03T12:11:12.639Z,2.70
2022-11-03T12:13:51.472Z,2.33
2022-11-03T12:16:32.377Z,1.75
2022-11-03T12:19:33.944Z,1.75
2022-11-03T12:22:01.503Z,2.92
2022-11-03T12:24:31.437Z,2.55
2022-11-03T12:27:02.419Z,3.08
2022-11-03T12:29:29.732Z,1.77
2022-11-03T12:31:56.583Z,2.65
2022-11-03T12:34:23.487Z,2.05
2022-11-03T12:36:55.755Z,1.80
2022-11-03T12:39:23.274Z,1.95
2022-11-03T12:41:50.124Z,2.20
2022-11-03T12:44:17.123Z,2.00
2022-11-03T12:46:44.007Z,2.22
2022-11-03T12:49:10.967Z,2.20
2022-11-03T12:51:37.905Z,2.42
2022-11-03T12:54:05.094Z,2.33
2022-11-03T12:56:31.991Z,1.77
2022-11-03T12:58:59.152Z,2.03
2022-11-03T13:01:26.235Z,2.90
2022-11-03T13:03:53.363Z,3.15
2022-11-03T13:06:20.399Z,2.38
2022-11-03T13:08:53.066Z,2.33
2022-11-03T13:11:39.079Z,2.17
2022-11-03T13:14:06.010Z,1.70
2022-11-03T13:16:33.244Z,2.35
2022-11-03T13:19:00.221Z,1.60
2022-11-03T13:21:28.221Z,2.00
2022-11-03T13:23:56.403Z,1.90
2022-11-03T13:26:23.329Z,2.65
2022-11-03T13:28:50.241Z,2.40
2022-11-03T13:31:17.229Z,2.78
2022-11-03T13:33:44.141Z,2.17
2022-11-03T13:36:11.528Z,1.95
2022-11-03T13:38:38.475Z,3.08
2022-11-03T13:41:08.766Z,1.95
2022-11-03T13:43:36.677Z,3.15
2022-11-03T13:46:04.997Z,1.92
2022-11-03T13:51:21.544Z,3.00
2022-11-03T14:04:41.648Z,1.98
2022-11-03T14:07:09.127Z,1.83
2022-11-03T14:12:22.663Z,2.83
2022-11-03T14:14:49.509Z,2.05
2022-11-03T14:17:16.468Z,2.00
2022-11-03T14:19:48.686Z,2.05
2022-11-03T14:22:19.989Z,2.05
2022-11-03T14:24:48.468Z,1.80
2022-11-03T14:27:16.079Z,3.25
2022-11-03T14:29:43.819Z,3.53
2022-11-03T14:32:12.023Z,2.00
2022-11-03T14:34:38.901Z,2.20
2022-11-03T14:37:08.575Z,2.30
2022-11-03T14:39:38.669Z,2.75
2022-11-03T14:42:15.516Z,1.73
2022-11-03T14:44:44.629Z,2.75
2022-11-03T14:47:15.548Z,2.40
2022-11-03T14:49:42.491Z,1.60
2022-11-03T14:52:09.954Z,1.88
2022-11-03T14:54:37.052Z,1.65
2022-11-03T14:57:04.993Z,2.00
2022-11-03T14:59:31.849Z,1.77
2022-11-03T15:01:59.495Z,1.70
2022-11-03T15:04:26.814Z,2.45
2022-11-03T15:06:54.528Z,2.20
2022-11-03T15:09:21.572Z,2.30
2022-11-03T15:11:48.556Z,3.85
2022-11-03T15:14:15.571Z,2.75
2022-11-03T15:16:43.963Z,2.75
2022-11-03T15:19:11.074Z,2.72
2022-11-03T15:21:38.049Z,2.05
2022-11-03T15:26:51.957Z,1.67
2022-11-03T15:29:18.792Z,2.08
2022-11-03T15:31:48.105Z,2.50
2022-11-03T15:34:16.476Z,1.85
2022-11-03T15:36:43.624Z,1.88
2022-11-03T15:39:10.476Z,2.80
2022-11-03T15:41:37.386Z,2.13
2022-11-03T15:44:04.209Z,1.60
2022-11-03T15:46:31.108Z,2.13
2022-11-03T15:48:58.080Z,2.13
2022-11-03T15:51:25.474Z,2.63
2022-11-03T15:53:58.258Z,1.85
2022-11-03T15:56:27.029Z,3.50
2022-11-03T15:58:53.977Z,2.67
2022-11-03T16:01:21.473Z,3.17
2022-11-03T16:03:48.532Z,2.58
2022-11-03T16:06:16.035Z,1.83
2022-11-03T16:08:43.531Z,2.55
2022-11-03T16:11:10.446Z,2.17
2022-11-03T16:13:37.375Z,2.83
2022-11-03T16:16:04.544Z,1.63
2022-11-03T16:18:31.408Z,1.73
2022-11-03T16:20:58.270Z,2.17
2022-11-03T16:23:25.255Z,3.42
2022-11-03T16:25:52.318Z,1.90
2022-11-03T16:28:19.348Z,2.47
2022-11-03T16:30:49.812Z,2.50
2022-11-03T16:33:22.581Z,1.75
2022-11-03T16:35:49.556Z,2.00
2022-11-03T16:38:16.705Z,2.08
2022-11-03T16:40:43.732Z,4.13
2022-11-03T16:43:11.020Z,2.40
2022-11-03T16:45:38.484Z,1.92
2022-11-03T16:48:06.666Z,2.13
2022-11-03T16:50:34.019Z,2.40
2022-11-03T16:53:00.990Z,3.00
2022-11-03T16:55:27.891Z,2.70
2022-11-03T16:57:54.824Z,2.80
2022-11-03T17:00:21.894Z,2.53
2022-11-03T17:02:48.922Z,3.22
2022-11-03T17:05:18.659Z,2.65
2022-11-03T17:07:52.862Z,2.10
2022-11-03T17:10:21.382Z,2.72
2022-11-03T17:12:48.589Z,2.80
2022-11-03T17:15:15.658Z,2.75
2022-11-03T17:17:42.950Z,2.50
2022-11-03T17:20:10.913Z,2.83
2022-11-03T17:22:38.327Z,3.00
2022-11-03T17:25:07.823Z,3.15
2022-11-03T17:27:51.722Z,2.78
2022-11-03T17:30:27.065Z,2.30
2022-11-03T17:32:58.803Z,2.03
2022-11-03T17:35:39.800Z,3.08
2022-11-03T17:38:16.273Z,1.88
2022-11-03T17:40:45.761Z,1.77
2022-11-03T17:43:24.224Z,2.20
2022-11-03T17:45:51.304Z,1.95
2022-11-03T17:48:18.399Z,1.50
2022-11-03T17:50:54.489Z,2.20
2022-11-03T17:53:24.693Z,2.58
2022-11-03T17:56:23.559Z,2.15
2022-11-03T17:58:46.318Z,2.10
2022-11-03T18:01:22.047Z,2.67
2022-11-03T18:03:49.342Z,3.17
2022-11-03T18:06:19.365Z,2.83
2022-11-03T18:08:50.100Z,2.42
2022-11-03T18:11:45.959Z,2.95
2022-11-03T18:14:13.489Z,2.95
2022-11-03T18:16:40.792Z,2.55
2022-11-03T18:19:15.452Z,2.60
2022-11-03T18:21:42.473Z,3.33
2022-11-03T18:24:14.921Z,3.47
2022-11-03T18:26:42.585Z,3.45
2022-11-03T18:29:09.979Z,3.78
2022-11-03T18:31:38.572Z,3.05
2022-11-03T18:34:11.978Z,3.38
2022-11-03T18:36:38.926Z,3.08
2022-11-03T18:39:06.087Z,4.47
2022-11-03T18:41:41.862Z,3.80
2022-11-03T18:44:15.594Z,3.28
2022-11-03T18:46:43.050Z,3.45
2022-11-03T18:49:10.166Z,3.88
2022-11-03T18:51:37.517Z,3.97
2022-11-03T18:54:04.860Z,4.55
2022-11-03T18:56:35.685Z,4.15
2022-11-03T18:59:05.812Z,5.00
2022-11-03T19:01:32.885Z,5.63
2022-11-03T19:03:59.907Z,4.78
2022-11-03T19:06:26.881Z,4.38
2022-11-03T19:08:59.514Z,5.63
2022-11-03T19:11:27.030Z,4.78
2022-11-03T19:13:54.279Z,5.85
2022-11-03T19:16:23.801Z,5.18
2022-11-03T19:18:52.455Z,7.65
2022-11-03T19:21:24.221Z,5.80
2022-11-03T19:23:58.013Z,6.18
2022-11-03T19:26:33.729Z,6.57
2022-11-03T19:29:10.893Z,6.35
2022-11-03T19:31:40.175Z,5.25
2022-11-03T19:34:12.892Z,6.68
2022-11-03T19:36:43.111Z,6.25
2022-11-03T19:39:17.610Z,5.80
2022-11-03T19:42:02.989Z,6.97
2022-11-03T19:44:30.304Z,7.85
2022-11-03T19:46:57.331Z,7.30
2022-11-03T19:49:24.314Z,6.97
2022-11-03T19:51:51.301Z,7.10
2022-11-03T19:54:21.098Z,7.13
2022-11-03T19:56:48.897Z,7.40
2022-11-03T19:59:17.640Z,6.93
2022-11-03T20:01:44.637Z,8.95
2022-11-03T20:04:11.711Z,8.05
2022-11-03T20:06:40.653Z,7.85
2022-11-03T20:09:10.920Z,9.52
2022-11-03T20:11:37.828Z,8.13
2022-11-03T20:14:04.851Z,9.45
2022-11-03T20:16:31.852Z,9.40
2022-11-03T20:18:58.763Z,8.95
2022-11-03T20:21:31.474Z,8.82
2022-11-03T20:24:01.352Z,9.18
2022-11-03T20:26:28.648Z,9.55
2022-11-03T20:28:58.267Z,8.93
2022-11-03T20:31:31.990Z,10.27
2022-11-03T20:33:59.969Z,10.15
2022-11-03T20:36:27.290Z,11.48
2022-11-03T20:38:59.148Z,10.93
2022-11-03T20:41:30.600Z,11.68
2022-11-03T20:43:59.082Z,11.00
2022-11-03T20:46:28.638Z,11.60
2022-11-03T20:48:55.903Z,12.45
2022-11-03T20:51:27.577Z,12.73
2022-11-03T20:53:55.770Z,12.73
2022-11-03T20:56:27.737Z,13.50
2022-11-03T20:58:55.054Z,12.23
2022-11-03T21:01:30.681Z,13.23
2022-11-03T21:04:00.179Z,13.30
2022-11-03T21:06:29.605Z,13.45
2022-11-03T21:08:56.568Z,15.38
2022-11-03T21:11:29.218Z,15.00
2022-11-03T21:13:58.807Z,13.35
2022-11-03T21:16:45.758Z,13.73
2022-11-03T21:19:39.328Z,13.63
2022-11-03T21:25:18.893Z,16.27
2022-11-03T21:27:46.192Z,16.17
2022-11-03T21:30:14.844Z,15.35
2022-11-03T21:32:41.808Z,16.90
2022-11-03T21:35:16.383Z,17.98
2022-11-03T21:37:43.568Z,15.85
2022-11-03T21:40:11.424Z,17.38
2022-11-03T21:42:56.913Z,17.98
2022-11-03T21:45:23.978Z,19.25
2022-11-03T21:48:14.724Z,17.63
2022-11-03T21:50:43.081Z,17.75
2022-11-03T21:53:11.507Z,17.05
2022-11-03T21:55:39.106Z,18.83
2022-11-03T21:58:06.664Z,18.92
2022-11-03T22:00:34.074Z,16.92
2022-11-03T22:03:01.600Z,19.58
2022-11-03T22:05:28.870Z,18.85
2022-11-03T22:07:55.853Z,19.52
2022-11-03T22:10:22.968Z,19.10
2022-11-03T22:12:49.977Z,18.52
2022-11-03T22:15:35.667Z,18.17
2022-11-03T22:18:07.138Z,19.05
2022-11-03T22:20:55.285Z,19.83
2022-11-03T22:23:43.140Z,19.20
2022-11-03T22:26:34.570Z,18.55
2022-11-03T22:29:20.512Z,19.17
2022-11-03T22:31:47.426Z,18.63
2022-11-03T22:34:32.987Z,18.40
2022-11-03T22:37:00.007Z,17.98
2022-11-03T22:39:45.903Z,18.05
2022-11-03T22:42:31.882Z,17.08
2022-11-03T22:45:17.339Z,16.95
2022-11-03T22:47:44.279Z,18.33
2022-11-03T22:50:11.192Z,17.10
2022-11-03T22:52:38.207Z,17.45
2022-11-03T22:55:05.356Z,16.85
2022-11-03T22:57:32.240Z,18.52
2022-11-03T22:59:59.115Z,16.77
2022-11-03T23:02:26.164Z,17.25
2022-11-03T23:04:53.042Z,18.10
2022-11-03T23:07:19.923Z,17.02
2022-11-03T23:09:46.888Z,15.98
2022-11-03T23:12:13.959Z,16.67
2022-11-03T23:14:59.634Z,14.18
2022-11-03T23:17:46.431Z,15.88
2022-11-03T23:20:32.373Z,17.98
2022-11-03T23:22:59.615Z,15.55
2022-11-03T23:25:26.450Z,15.27
2022-11-03T23:27:53.497Z,14.40
2022-11-03T23:30:20.341Z,14.88
2022-11-03T23:32:47.263Z,13.85
2022-11-03T23:35:14.698Z,13.85
2022-11-03T23:37:41.603Z,16.48
2022-11-03T23:40:09.089Z,17.40
2022-11-03T23:42:35.958Z,17.20
2022-11-03T23:45:21.546Z,16.50
2022-11-03T23:48:07.805Z,16.42
2022-11-03T23:50:34.798Z,17.58
2022-11-03T23:53:01.626Z,17.52
2022-11-03T23:55:49.027Z,16.95
2022-11-03T23:58:18.818Z,19.13
